Time;durP1;ratioP1;P1;durP2;ratioP2;P2;SDS_P1;SDS_P2;PMS_P1;PMS_P2;Temp;Humidity;BMP_temperature;BMP_pressure;BME280_temperature;BME280_humidity;BME280_pressure;Samples;Min_cycle;Max_cycle;Signal;HPM_P1;HPM_P2
2023/04/01 00:02:19;;;;;;;7.50;2.72;;;11.00;99.90;;;;;;5039100;28;20044;-92
2023/04/01 00:04:45;;;;;;;7.45;2.38;;;11.00;99.90;;;;;;5055035;28;20049;-92
2023/04/01 00:07:10;;;;;;;7.35;2.60;;;11.00;99.90;;;;;;5055234;28;20044;-92
2023/04/01 00:09:37;;;;;;;8.52;2.42;;;11.00;99.90;;;;;;5039114;28;20037;-91
2023/04/01 00:12:02;;;;;;;8.73;3.13;;;11.00;99.90;;;;;;5055193;28;20505;-92
2023/04/01 00:14:29;;;;;;;6.18;2.28;;;11.00;99.90;;;;;;5056999;28;20032;-93
2023/04/01 00:16:55;;;;;;;7.35;2.50;;;11.00;99.90;;;;;;5034277;28;20497;-92
2023/04/01 00:19:20;;;;;;;8.52;2.70;;;11.00;99.90;;;;;;5040318;28;20036;-92
2023/04/01 00:21:46;;;;;;;6.63;2.30;;;11.00;99.90;;;;;;5039532;28;20123;-92
2023/04/01 00:24:11;;;;;;;7.10;2.63;;;11.00;99.90;;;;;;5038699;28;20493;-92
2023/04/01 00:26:37;;;;;;;9.45;3.25;;;11.00;99.90;;;;;;5039417;28;20107;-92
2023/04/01 00:29:03;;;;;;;8.75;3.13;;;11.00;99.90;;;;;;5039860;28;20072;-92
2023/04/01 00:31:29;;;;;;;7.68;3.20;;;11.00;99.90;;;;;;5054836;28;20029;-91
2023/04/01 00:33:56;;;;;;;6.65;3.00;;;11.00;99.90;;;;;;5039088;28;20563;-92
2023/04/01 00:36:22;;;;;;;7.93;3.15;;;11.00;99.90;;;;;;5055243;28;20041;-92
2023/04/01 00:38:49;;;;;;;8.40;2.78;;;11.00;99.90;;;;;;5056150;28;20029;-93
2023/04/01 00:41:16;;;;;;;7.38;2.55;;;11.00;99.90;;;;;;5038531;28;20028;-92
2023/04/01 00:43:44;;;;;;;7.82;2.60;;;11.00;99.90;;;;;;5021029;28;20553;-92
2023/04/01 00:46:10;;;;;;;7.43;2.63;;;11.00;99.90;;;;;;5035562;28;20081;-91
2023/04/01 00:48:39;;;;;;;6.50;2.95;;;10.90;99.90;;;;;;5034253;28;20075;-90
2023/04/01 00:51:18;;;;;;;7.40;2.78;;;10.90;99.90;;;;;;5037925;28;20044;-92
2023/04/01 00:53:48;;;;;;;6.63;2.65;;;10.90;99.90;;;;;;5054801;28;20032;-91
2023/04/01 00:56:18;;;;;;;6.40;2.53;;;10.90;99.90;;;;;;5039656;28;20476;-91
2023/04/01 00:58:48;;;;;;;5.78;2.30;;;10.90;99.90;;;;;;5036819;28;20382;-92
2023/04/01 01:01:14;;;;;;;6.22;2.47;;;10.90;99.90;;;;;;5037576;28;20037;-91
2023/04/01 01:03:39;;;;;;;8.23;2.75;;;10.90;99.90;;;;;;5054834;28;20448;-92
2023/04/01 01:06:23;;;;;;;7.72;2.67;;;10.90;99.90;;;;;;5037270;28;20260;-92
2023/04/01 01:09:15;;;;;;;4.80;1.80;;;10.90;99.90;;;;;;5051312;28;20090;-91
2023/04/01 01:12:11;;;;;;;5.82;2.42;;;10.90;99.90;;;;;;5036802;28;20709;-92
2023/04/01 01:14:54;;;;;;;6.60;2.05;;;10.90;99.90;;;;;;5038922;28;20036;-92
2023/04/01 01:17:32;;;;;;;7.75;2.65;;;10.90;99.90;;;;;;5038146;28;20115;-92
2023/04/01 01:20:10;;;;;;;6.78;2.90;;;10.80;99.90;;;;;;5055222;28;20044;-93
2023/04/01 01:23:08;;;;;;;5.40;2.13;;;10.80;99.90;;;;;;5035267;28;20040;-93
2023/04/01 01:25:45;;;;;;;5.93;2.20;;;10.80;99.90;;;;;;5053311;28;20032;-91
2023/04/01 01:28:22;;;;;;;6.05;2.13;;;10.80;99.90;;;;;;5054289;28;20089;-93
2023/04/01 01:31:12;;;;;;;6.95;2.45;;;10.90;99.90;;;;;;5036898;28;20677;-91
2023/04/01 01:34:07;;;;;;;7.28;2.78;;;10.80;99.90;;;;;;5054429;28;20090;-92
2023/04/01 01:36:37;;;;;;;8.05;2.55;;;10.90;99.90;;;;;;5027174;28;20049;-91
2023/04/01 01:39:06;;;;;;;8.30;2.85;;;10.90;99.90;;;;;;5055104;28;20040;-92
2023/04/01 01:41:33;;;;;;;7.07;2.80;;;10.90;99.90;;;;;;5053519;28;20035;-91
2023/04/01 01:44:02;;;;;;;8.85;3.00;;;10.80;99.90;;;;;;5053579;28;20047;-91
2023/04/01 01:46:30;;;;;;;7.88;2.90;;;10.80;99.90;;;;;;5037038;28;20043;-91
2023/04/01 01:48:57;;;;;;;7.53;3.20;;;10.80;99.90;;;;;;5036827;28;20040;-92
2023/04/01 01:51:24;;;;;;;7.50;3.08;;;10.90;99.90;;;;;;5037242;28;20040;-93
2023/04/01 01:53:50;;;;;;;7.55;3.75;;;10.90;99.90;;;;;;5034336;28;20537;-92
2023/04/01 01:56:19;;;;;;;8.00;3.30;;;10.80;99.90;;;;;;5037961;28;20090;-92
2023/04/01 01:58:54;;;;;;;8.57;3.17;;;10.90;99.90;;;;;;5035615;28;20052;-92
2023/04/01 02:01:24;;;;;;;9.82;2.90;;;10.80;99.90;;;;;;5034920;28;20048;-91
2023/04/01 02:03:52;;;;;;;6.95;2.90;;;10.80;99.90;;;;;;5053494;28;20437;-92
2023/04/01 02:06:20;;;;;;;7.88;2.78;;;10.80;99.90;;;;;;5053159;28;20047;-91
2023/04/01 02:09:00;;;;;;;6.90;3.10;;;10.90;99.90;;;;;;5017270;28;20040;-92
2023/04/01 02:11:37;;;;;;;8.02;3.15;;;10.90;99.90;;;;;;5016823;28;20116;-92
2023/04/01 02:14:37;;;;;;;8.32;3.00;;;10.80;99.90;;;;;;5047644;28;20547;-92
2023/04/01 02:17:11;;;;;;;6.68;3.42;;;10.80;99.90;;;;;;5040012;28;20094;-92
2023/04/01 02:19:52;;;;;;;6.35;2.90;;;10.90;99.90;;;;;;5036738;28;20091;-92
2023/04/01 02:22:27;;;;;;;7.43;2.60;;;10.80;99.90;;;;;;5032920;28;20041;-92
2023/04/01 02:24:56;;;;;;;6.93;2.60;;;10.80;99.90;;;;;;5024097;28;20058;-92
2023/04/01 02:27:23;;;;;;;8.07;2.95;;;10.80;99.90;;;;;;5052690;28;20123;-92
2023/04/01 02:29:49;;;;;;;7.63;2.60;;;10.80;99.90;;;;;;5036278;28;20036;-92
2023/04/01 02:32:17;;;;;;;6.30;2.58;;;10.90;99.90;;;;;;5052866;28;20036;-92
2023/04/01 02:34:43;;;;;;;6.65;2.75;;;10.80;99.90;;;;;;5036860;28;20048;-91
2023/04/01 02:37:10;;;;;;;6.75;2.53;;;10.80;99.90;;;;;;5054385;28;20064;-93
2023/04/01 02:39:36;;;;;;;7.53;3.28;;;10.80;99.90;;;;;;5052941;28;20040;-91
2023/04/01 02:42:01;;;;;;;8.00;2.75;;;10.80;99.90;;;;;;5037503;28;20043;-93
2023/04/01 02:44:27;;;;;;;6.75;2.83;;;10.80;99.90;;;;;;5036863;28;20433;-92
2023/04/01 02:46:52;;;;;;;8.50;3.30;;;10.80;99.90;;;;;;5053240;28;20553;-92
2023/04/01 02:49:18;;;;;;;7.95;3.13;;;10.80;99.90;;;;;;5053468;28;20389;-93
2023/04/01 02:51:44;;;;;;;7.10;3.25;;;10.80;99.90;;;;;;5035312;28;20485;-92
2023/04/01 02:54:09;;;;;;;8.60;3.85;;;10.80;99.90;;;;;;5053227;28;20041;-92
2023/04/01 02:56:35;;;;;;;7.97;3.78;;;10.80;99.90;;;;;;5053962;28;20036;-91
2023/04/01 02:59:01;;;;;;;7.82;3.10;;;10.80;99.90;;;;;;5053299;28;20546;-92
2023/04/01 03:01:26;;;;;;;9.93;3.88;;;10.80;99.90;;;;;;5036631;28;20093;-93
2023/04/01 03:03:52;;;;;;;8.10;3.80;;;10.80;99.90;;;;;;5053777;28;20123;-92
2023/04/01 03:06:18;;;;;;;9.07;3.53;;;10.80;99.90;;;;;;5052277;28;20064;-92
2023/04/01 03:08:44;;;;;;;9.77;3.53;;;10.80;99.90;;;;;;5051339;28;20532;-92
2023/04/01 03:11:10;;;;;;;10.60;3.78;;;10.80;99.90;;;;;;5052459;28;20041;-92
2023/04/01 03:13:36;;;;;;;7.88;3.45;;;10.80;99.90;;;;;;5034893;28;20123;-92
2023/04/01 03:16:02;;;;;;;7.85;4.00;;;10.90;99.90;;;;;;5036324;28;20124;-92
2023/04/01 03:18:28;;;;;;;8.35;3.65;;;10.80;99.90;;;;;;5051735;28;20521;-92
2023/04/01 03:20:54;;;;;;;7.72;4.05;;;10.80;99.90;;;;;;5051534;28;20041;-92
2023/04/01 03:23:20;;;;;;;9.07;4.38;;;10.90;99.90;;;;;;5033052;28;20120;-92
2023/04/01 03:25:47;;;;;;;9.32;3.97;;;10.80;99.90;;;;;;5033888;28;20028;-91
2023/04/01 03:28:13;;;;;;;8.27;3.70;;;10.90;99.90;;;;;;5035830;28;20035;-91
2023/04/01 03:30:39;;;;;;;8.45;4.45;;;10.80;99.90;;;;;;5033098;28;20036;-91
2023/04/01 03:33:06;;;;;;;10.13;4.55;;;10.80;99.90;;;;;;5034298;28;20417;-92
2023/04/01 03:35:32;;;;;;;9.73;4.55;;;10.90;99.90;;;;;;5028022;28;20474;-92
2023/04/01 03:37:58;;;;;;;10.65;5.57;;;10.80;99.90;;;;;;5040203;28;20120;-91
2023/04/01 03:40:26;;;;;;;9.98;5.13;;;10.80;99.90;;;;;;5039306;28;20131;-91
2023/04/01 03:42:51;;;;;;;9.68;5.07;;;10.90;99.90;;;;;;5040406;28;20507;-92
2023/04/01 03:45:17;;;;;;;9.18;4.82;;;10.80;99.90;;;;;;5057560;28;20119;-92
2023/04/01 03:47:43;;;;;;;10.07;4.32;;;10.80;99.90;;;;;;5055599;28;20404;-92
2023/04/01 03:50:09;;;;;;;9.23;4.18;;;10.80;99.90;;;;;;5019481;28;20041;-92
2023/04/01 03:52:35;;;;;;;8.93;4.32;;;10.80;99.90;;;;;;5020305;28;20037;-92
2023/04/01 03:55:01;;;;;;;8.57;4.47;;;10.80;99.90;;;;;;5052442;28;20035;-92
2023/04/01 03:57:27;;;;;;;8.88;4.20;;;10.80;99.90;;;;;;5040348;28;20055;-92
2023/04/01 03:59:53;;;;;;;9.88;4.80;;;10.80;99.90;;;;;;5039411;28;20048;-92
2023/04/01 04:02:18;;;;;;;10.75;4.97;;;10.80;99.90;;;;;;5039420;28;20036;-93
2023/04/01 04:04:44;;;;;;;9.38;5.40;;;10.80;99.90;;;;;;5056637;28;20068;-92
2023/04/01 04:07:10;;;;;;;8.55;4.93;;;10.80;99.90;;;;;;5038766;28;20036;-92
2023/04/01 04:09:36;;;;;;;10.65;4.95;;;10.90;99.90;;;;;;5036285;28;20044;-93
2023/04/01 04:12:01;;;;;;;11.07;5.68;;;10.90;99.90;;;;;;5037995;28;20077;-92
2023/04/01 04:14:27;;;;;;;11.77;8.80;;;10.80;99.90;;;;;;5056150;28;20040;-92
2023/04/01 04:16:53;;;;;;;9.43;5.05;;;10.90;99.90;;;;;;5056508;28;20036;-92
2023/04/01 04:19:18;;;;;;;8.32;4.25;;;10.90;99.90;;;;;;5055812;28;20032;-92
2023/04/01 04:21:44;;;;;;;8.85;3.88;;;10.90;99.90;;;;;;5056575;28;20050;-92
2023/04/01 04:24:10;;;;;;;9.57;4.38;;;10.90;99.90;;;;;;5054040;28;20501;-92
2023/04/01 04:26:36;;;;;;;9.38;3.95;;;10.90;99.90;;;;;;5036535;28;20041;-92
2023/04/01 04:29:02;;;;;;;8.88;4.07;;;10.90;99.90;;;;;;5026297;28;20127;-91
2023/04/01 04:31:28;;;;;;;9.88;4.40;;;10.90;99.90;;;;;;5038650;28;20041;-92
2023/04/01 04:33:53;;;;;;;8.38;3.80;;;10.90;99.90;;;;;;5035581;28;20029;-92
2023/04/01 04:36:20;;;;;;;8.82;3.60;;;10.80;99.90;;;;;;5038304;28;20032;-92
2023/04/01 04:38:46;;;;;;;8.48;4.13;;;10.90;99.90;;;;;;5038829;28;20040;-92
2023/04/01 04:41:14;;;;;;;8.40;4.13;;;10.90;99.90;;;;;;5037605;28;20047;-91
2023/04/01 04:43:41;;;;;;;8.80;4.32;;;10.80;99.90;;;;;;5038810;28;20123;-93
2023/04/01 04:46:10;;;;;;;15.43;4.15;;;10.90;99.90;;;;;;5037840;28;20163;-92
2023/04/01 04:48:36;;;;;;;9.05;4.18;;;10.80;99.90;;;;;;5034441;28;20052;-93
2023/04/01 04:51:02;;;;;;;8.93;4.15;;;10.90;99.90;;;;;;5056417;28;20036;-92
2023/04/01 04:53:28;;;;;;;9.65;4.57;;;10.90;99.90;;;;;;5054889;28;20116;-92
2023/04/01 04:55:54;;;;;;;7.80;3.95;;;10.90;99.90;;;;;;5039228;28;20509;-92
2023/04/01 04:58:20;;;;;;;9.07;4.25;;;10.90;99.90;;;;;;5038174;28;20462;-93
2023/04/01 05:00:46;;;;;;;9.20;4.03;;;10.90;99.90;;;;;;5038492;28;20036;-93
2023/04/01 05:03:12;;;;;;;9.55;3.85;;;10.90;99.90;;;;;;5027289;28;20041;-92
2023/04/01 05:05:39;;;;;;;9.27;3.90;;;10.90;99.90;;;;;;5033786;28;20082;-92
2023/04/01 05:08:05;;;;;;;8.95;4.03;;;10.90;99.90;;;;;;5017854;28;20088;-93
2023/04/01 05:10:31;;;;;;;8.30;3.78;;;10.90;99.90;;;;;;5045270;28;20090;-92
2023/04/01 05:12:57;;;;;;;9.10;4.70;;;10.90;99.90;;;;;;5036838;28;20041;-92
2023/04/01 05:15:23;;;;;;;10.88;5.55;;;10.90;99.90;;;;;;5037530;28;20078;-92
2023/04/01 05:17:49;;;;;;;10.45;5.28;;;10.90;99.90;;;;;;5036937;28;20525;-92
2023/04/01 05:20:15;;;;;;;10.32;5.10;;;10.90;99.90;;;;;;5037224;28;20082;-93
2023/04/01 05:22:41;;;;;;;9.82;4.97;;;10.90;99.90;;;;;;5034811;28;20040;-93
2023/04/01 05:25:07;;;;;;;10.02;4.53;;;10.90;99.90;;;;;;5017793;28;20695;-93
2023/04/01 05:27:32;;;;;;;9.35;4.50;;;10.90;99.90;;;;;;5035214;28;20041;-92
2023/04/01 05:29:58;;;;;;;9.80;4.65;;;10.90;99.90;;;;;;5031307;28;20038;-92
2023/04/01 05:32:24;;;;;;;9.80;7.50;;;10.90;99.90;;;;;;5054669;28;20044;-94
2023/04/01 05:34:53;;;;;;;9.05;4.47;;;10.90;99.90;;;;;;5055116;28;20044;-93
2023/04/01 05:37:19;;;;;;;8.52;4.00;;;11.00;99.90;;;;;;5036650;28;20037;-92
2023/04/01 05:39:45;;;;;;;9.05;3.95;;;10.90;99.90;;;;;;5053572;28;20040;-93
2023/04/01 05:42:11;;;;;;;9.13;4.15;;;10.90;99.90;;;;;;5053059;28;20041;-94
2023/04/01 05:44:37;;;;;;;9.13;4.43;;;10.90;99.90;;;;;;5037886;28;20123;-94
2023/04/01 05:47:04;;;;;;;10.23;4.75;;;10.90;99.90;;;;;;5037028;28;20040;-93
2023/04/01 05:49:29;;;;;;;9.15;4.75;;;10.90;99.90;;;;;;5036791;28;20040;-93
2023/04/01 05:51:56;;;;;;;8.80;4.25;;;10.90;99.90;;;;;;5054811;28;20047;-93
2023/04/01 05:54:21;;;;;;;9.68;4.43;;;10.90;99.90;;;;;;5037302;28;20632;-95
2023/04/01 05:56:47;;;;;;;9.73;4.70;;;10.90;99.90;;;;;;5053497;28;20051;-93
2023/04/01 05:59:13;;;;;;;9.55;4.90;;;11.00;99.90;;;;;;5036118;28;20040;-92
2023/04/01 06:01:39;;;;;;;9.63;5.15;;;11.00;99.90;;;;;;5034222;28;20078;-92
2023/04/01 06:04:04;;;;;;;8.98;4.90;;;11.00;99.90;;;;;;5025532;28;20028;-92
2023/04/01 06:06:32;;;;;;;9.38;5.10;;;11.00;99.90;;;;;;5037391;28;20032;-92
2023/04/01 06:09:07;;;;;;;10.25;5.10;;;11.00;99.90;;;;;;5053845;28;20086;-93
2023/04/01 06:11:57;;;;;;;12.05;4.78;;;11.00;99.90;;;;;;5036858;28;20032;-92
2023/04/01 06:14:46;;;;;;;9.90;5.45;;;11.00;99.90;;;;;;5035381;28;20040;-92
2023/04/01 06:17:43;;;;;;;9.70;5.22;;;11.00;99.90;;;;;;5045014;28;20056;-92
2023/04/01 06:20:28;;;;;;;9.43;5.43;;;11.00;99.90;;;;;;4971469;28;20114;-93
2023/04/01 06:23:03;;;;;;;11.30;6.10;;;11.00;99.90;;;;;;4989206;28;20045;-93
2023/04/01 06:25:57;;;;;;;10.48;5.72;;;11.00;99.90;;;;;;4978726;28;20148;-92
2023/04/01 06:28:38;;;;;;;13.40;6.97;;;11.10;99.90;;;;;;4952085;28;20050;-92
2023/04/01 06:31:13;;;;;;;12.27;6.93;;;11.10;99.90;;;;;;4957137;28;20054;-92
2023/04/01 06:34:01;;;;;;;13.60;7.10;;;11.10;99.90;;;;;;4999251;28;20073;-93
2023/04/01 06:36:52;;;;;;;12.65;7.55;;;11.10;99.90;;;;;;4975540;28;20439;-92
2023/04/01 06:39:42;;;;;;;12.82;7.60;;;11.10;99.90;;;;;;4985663;28;20507;-93
2023/04/01 06:42:37;;;;;;;12.40;7.20;;;11.20;99.90;;;;;;4989975;28;20052;-93
2023/04/01 06:45:24;;;;;;;13.13;8.07;;;11.10;99.90;;;;;;4991282;28;20052;-93
2023/04/01 06:48:26;;;;;;;13.02;7.65;;;11.20;99.90;;;;;;4993830;28;20038;-93
2023/04/01 06:51:33;;;;;;;13.50;6.53;;;11.20;99.90;;;;;;5026783;28;20470;-94
2023/04/01 06:54:20;;;;;;;11.07;6.05;;;11.20;99.90;;;;;;4989510;28;20041;-93
2023/04/01 06:56:49;;;;;;;11.27;5.90;;;11.20;99.90;;;;;;4996523;28;20661;-94
2023/04/01 06:59:26;;;;;;;11.25;5.72;;;11.20;99.90;;;;;;5034850;28;20037;-93
2023/04/01 07:01:55;;;;;;;12.77;5.80;;;11.20;99.90;;;;;;5052191;28;20075;-94
2023/04/01 07:04:26;;;;;;;11.02;5.68;;;11.20;99.90;;;;;;5036219;28;20123;-94
2023/04/01 07:07:23;;;;;;;11.15;6.13;;;11.20;99.90;;;;;;5034152;28;20029;-92
2023/04/01 07:09:53;;;;;;;9.82;5.45;;;11.20;99.90;;;;;;5053290;28;20036;-94
2023/04/01 07:12:29;;;;;;;9.93;5.53;;;11.20;99.90;;;;;;5053229;28;20040;-93
2023/04/01 07:14:58;;;;;;;10.77;5.63;;;11.20;99.90;;;;;;5036021;28;20298;-94
2023/04/01 07:17:30;;;;;;;10.68;5.47;;;11.20;99.90;;;;;;5031903;28;20032;-93
2023/04/01 07:20:36;;;;;;;12.63;6.35;;;11.30;99.90;;;;;;5020546;28;20047;-93
2023/04/01 07:23:18;;;;;;;10.68;5.53;;;11.30;99.90;;;;;;4936655;28;20824;-94
2023/04/01 07:25:47;;;;;;;11.07;5.82;;;11.30;99.90;;;;;;4952213;28;20098;-93
2023/04/01 07:28:18;;;;;;;12.38;6.55;;;11.30;99.90;;;;;;4937405;28;20510;-93
2023/04/01 07:31:01;;;;;;;13.13;7.40;;;11.30;99.90;;;;;;4950853;28;20151;-94
2023/04/01 07:33:29;;;;;;;;;;;11.30;99.90;;;;;;4951468;28;20439;-94
2023/04/01 07:36:01;;;;;;;13.15;6.78;;;11.30;99.90;;;;;;4937675;28;19973;-93
2023/04/01 07:38:59;;;;;;;12.70;7.00;;;11.40;99.90;;;;;;4952704;28;20089;-93
2023/04/01 07:41:51;;;;;;;13.35;7.28;;;11.40;99.90;;;;;;4937796;28;20059;-94
2023/04/01 07:44:33;;;;;;;12.63;6.88;;;11.40;99.90;;;;;;4952414;28;20048;-93
2023/04/01 07:47:18;;;;;;;12.48;6.15;;;11.40;99.90;;;;;;4954273;28;20046;-93
2023/04/01 07:50:19;;;;;;;13.23;6.57;;;11.40;99.90;;;;;;4952647;28;20496;-93
2023/04/01 07:53:09;;;;;;;12.50;6.13;;;11.50;99.90;;;;;;4948301;28;20049;-93
2023/04/01 07:56:00;;;;;;;12.70;6.68;;;11.50;99.90;;;;;;4965315;28;20573;-92
2023/04/01 07:58:41;;;;;;;12.95;7.18;;;11.50;99.90;;;;;;4985731;28;20044;-92
2023/04/01 08:01:10;;;;;;;14.88;7.32;;;11.50;99.90;;;;;;5035540;28;20029;-92
2023/04/01 08:03:44;;;;;;;13.70;7.63;;;11.60;99.90;;;;;;5035109;28;20725;-92
2023/04/01 08:06:25;;;;;;;15.73;8.48;;;11.60;99.90;;;;;;5051932;28;20151;-92
2023/04/01 08:08:51;;;;;;;15.00;8.55;;;11.60;99.90;;;;;;5051990;28;20095;-93
2023/04/01 08:11:37;;;;;;;16.13;8.00;;;11.60;99.90;;;;;;5036419;28;20445;-93
2023/04/01 08:14:15;;;;;;;14.48;7.20;;;11.70;99.90;;;;;;5051595;28;20497;-92
2023/04/01 08:16:43;;;;;;;16.02;7.97;;;11.60;99.90;;;;;;5048607;28;20124;-92
2023/04/01 08:19:44;;;;;;;16.08;8.75;;;11.70;99.90;;;;;;5016149;28;20044;-92
2023/04/01 08:22:19;;;;;;;15.77;8.77;;;11.70;99.90;;;;;;5055113;28;20040;-92
2023/04/01 08:24:48;;;;;;;15.02;7.65;;;11.70;99.90;;;;;;5039203;28;20398;-92
2023/04/01 08:27:39;;;;;;;13.13;6.60;;;11.70;99.90;;;;;;5055052;28;20111;-92
2023/04/01 08:30:30;;;;;;;13.48;6.55;;;11.70;99.90;;;;;;5032375;28;20044;-92
2023/04/01 08:33:21;;;;;;;12.75;6.75;;;11.70;99.90;;;;;;5037537;28;20390;-93
2023/04/01 08:36:07;;;;;;;13.00;7.30;;;11.80;99.90;;;;;;5052829;28;20700;-94
2023/04/01 08:38:41;;;;;;;13.38;7.45;;;11.70;99.90;;;;;;5038193;28;20409;-93
2023/04/01 08:41:27;;;;;;;14.23;11.25;;;11.80;99.90;;;;;;5035825;28;20159;-93
2023/04/01 08:44:15;;;;;;;10.57;5.43;;;11.90;99.90;;;;;;5035437;28;20049;-93
2023/04/01 08:47:11;;;;;;;9.63;4.50;;;11.90;99.90;;;;;;5038524;28;20040;-93
2023/04/01 08:49:37;;;;;;;9.95;4.03;;;12.00;99.90;;;;;;5030934;28;20067;-92
2023/04/01 08:52:18;;;;;;;8.00;3.75;;;12.00;99.90;;;;;;5029721;28;20056;-91
2023/04/01 08:54:43;;;;;;;9.20;3.38;;;12.10;99.90;;;;;;5034609;28;20071;-93
2023/04/01 08:57:35;;;;;;;9.52;6.97;;;12.10;99.90;;;;;;5035063;28;20664;-94
2023/04/01 09:00:15;;;;;;;9.27;3.70;;;12.20;99.90;;;;;;5053006;28;20044;-93
2023/04/01 09:02:49;;;;;;;7.25;3.00;;;12.20;99.90;;;;;;5038228;28;20043;-92
2023/04/01 09:05:57;;;;;;;8.05;3.67;;;12.20;99.90;;;;;;5071530;28;20039;-94
2023/04/01 09:08:43;;;;;;;7.47;2.78;;;12.30;99.90;;;;;;4998752;28;20083;-93
2023/04/01 09:11:47;;;;;;;7.10;2.75;;;12.40;99.90;;;;;;5038746;28;20093;-94
2023/04/01 09:14:36;;;;;;;8.52;5.30;;;12.50;99.90;;;;;;5035884;28;20164;-93
2023/04/01 09:17:39;;;;;;;6.32;2.15;;;12.60;99.90;;;;;;5050570;28;20036;-93
2023/04/01 09:20:23;;;;;;;5.38;2.53;;;12.70;99.90;;;;;;5053202;28;20163;-93
2023/04/01 09:22:55;;;;;;;4.88;1.45;;;12.70;99.90;;;;;;5017985;28;20045;-93
2023/04/01 09:25:41;;;;;;;4.45;1.52;;;12.70;99.90;;;;;;5037423;28;20501;-93
2023/04/01 09:28:19;;;;;;;6.13;2.35;;;12.60;99.90;;;;;;5070759;28;20515;-93
2023/04/01 09:31:03;;;;;;;6.85;2.50;;;12.60;99.90;;;;;;5036436;28;20036;-93
2023/04/01 09:33:59;;;;;;;8.40;2.75;;;12.60;99.90;;;;;;5036416;28;20036;-94
2023/04/01 09:36:45;;;;;;;7.82;4.00;;;12.60;99.90;;;;;;5030654;28;20048;-93
2023/04/01 09:39:37;;;;;;;6.35;2.33;;;12.60;99.90;;;;;;5034694;28;20037;-92
2023/04/01 09:42:43;;;;;;;6.72;2.38;;;12.60;99.90;;;;;;5051005;28;20062;-93
2023/04/01 09:45:31;;;;;;;6.28;2.50;;;12.50;99.90;;;;;;5049681;28;20055;-93
2023/04/01 09:48:41;;;;;;;7.93;3.30;;;12.50;99.90;;;;;;5053069;28;20090;-91
2023/04/01 09:51:33;;;;;;;7.93;3.25;;;12.40;99.90;;;;;;4998487;28;20078;-93
2023/04/01 09:54:08;;;;;;;7.25;2.97;;;12.40;99.90;;;;;;5054452;28;20033;-94
2023/04/01 09:56:44;;;;;;;8.90;3.92;;;12.40;99.90;;;;;;5036832;28;20041;-93
2023/04/01 09:59:13;;;;;;;8.15;3.63;;;12.50;99.90;;;;;;5034799;28;20035;-94
2023/04/01 10:02:03;;;;;;;8.85;4.18;;;12.40;99.90;;;;;;5037758;28;20037;-94
2023/04/01 10:05:04;;;;;;;8.23;4.03;;;12.50;99.90;;;;;;5034973;28;20047;-92
2023/04/01 10:08:02;;;;;;;8.93;3.65;;;12.50;99.90;;;;;;5035841;28;20044;-94
2023/04/01 10:11:18;;;;;;;8.18;5.90;;;12.50;99.90;;;;;;5035821;28;20068;-94
2023/04/01 10:13:47;;;;;;;7.90;3.90;;;12.60;99.90;;;;;;4979003;28;20502;-93
2023/04/01 10:16:30;;;;;;;8.70;4.20;;;12.60;99.90;;;;;;5033061;28;20028;-93
2023/04/01 10:19:14;;;;;;;8.75;3.47;;;12.60;99.90;;;;;;5054010;28;20036;-93
2023/04/01 10:21:52;;;;;;;8.32;3.97;;;12.60;99.90;;;;;;5041712;28;20533;-92
2023/04/01 10:24:30;;;;;;;8.45;3.75;;;12.60;99.90;;;;;;5033353;28;20090;-92
2023/04/01 10:27:29;;;;;;;7.75;3.92;;;12.60;99.90;;;;;;5033249;28;20492;-93
2023/04/01 10:30:23;;;;;;;8.35;5.65;;;12.70;99.90;;;;;;5034171;28;20060;-92
2023/04/01 10:33:23;;;;;;;7.80;3.75;;;12.80;99.90;;;;;;5053103;28;20040;-93
2023/04/01 10:35:58;;;;;;;8.00;3.70;;;12.80;99.90;;;;;;5033035;28;20056;-93
2023/04/01 10:39:08;;;;;;;8.95;3.67;;;12.80;99.90;;;;;;5019651;28;20078;-92
2023/04/01 10:42:00;;;;;;;7.75;3.58;;;12.80;99.90;;;;;;4946991;28;20050;-92
2023/04/01 10:44:42;;;;;;;8.32;5.40;;;12.90;99.90;;;;;;4937045;28;20085;-92
2023/04/01 10:47:26;;;;;;;8.32;4.00;;;12.90;99.90;;;;;;4953548;28;20137;-93
2023/04/01 10:50:10;;;;;;;8.60;3.97;;;13.00;99.90;;;;;;4954090;28;20042;-94
2023/04/01 10:53:13;;;;;;;8.50;3.63;;;13.00;99.90;;;;;;4938168;28;20055;-92
2023/04/01 10:55:47;;;;;;;7.55;3.45;;;13.10;99.90;;;;;;4938085;28;20046;-93
2023/04/01 10:58:57;;;;;;;7.50;3.55;;;13.10;99.90;;;;;;4946582;28;20050;-93
2023/04/01 11:01:46;;;;;;;8.20;3.60;;;13.10;99.90;;;;;;4936845;28;20053;-93
2023/04/01 11:04:55;;;;;;;8.13;3.90;;;13.20;99.90;;;;;;4945792;28;20054;-93
2023/04/01 11:07:30;;;;;;;7.70;5.00;;;13.20;99.90;;;;;;4954055;28;20051;-93
2023/04/01 11:10:22;;;;;;;8.35;3.30;;;13.30;99.90;;;;;;4953170;28;20121;-93
2023/04/01 11:13:12;;;;;;;7.63;3.53;;;13.20;99.90;;;;;;5021717;28;20044;-94
2023/04/01 11:15:44;;;;;;;7.40;3.45;;;13.20;99.90;;;;;;5035821;28;20036;-93
2023/04/01 11:18:35;;;;;;;7.40;3.35;;;13.20;99.90;;;;;;5036299;28;20052;-93
2023/04/01 11:21:25;;;;;;;7.93;5.43;;;13.20;99.90;;;;;;5052150;28;20047;-94
2023/04/01 11:24:00;;;;;;;8.15;3.75;;;13.30;99.90;;;;;;5047252;28;20051;-93
2023/04/01 11:26:52;;;;;;;7.72;3.72;;;13.30;99.90;;;;;;5036590;28;20036;-93
2023/04/01 11:29:53;;;;;;;7.85;4.13;;;13.40;99.90;;;;;;5035601;28;20024;-93
2023/04/01 11:32:37;;;;;;;9.55;4.45;;;13.40;99.90;;;;;;5036683;28;20050;-94
2023/04/01 11:35:27;;;;;;;8.45;4.53;;;13.40;99.90;;;;;;5035609;28;20044;-93
2023/04/01 11:37:59;;;;;;;8.93;5.25;;;13.50;99.90;;;;;;5033801;28;20052;-93
2023/04/01 11:40:53;;;;;;;10.00;7.32;;;13.50;99.90;;;;;;5050297;28;20131;-93
2023/04/01 11:43:41;;;;;;;10.10;8.07;;;13.60;99.90;;;;;;5032464;28;20053;-93
2023/04/01 11:46:41;;;;;;;7.50;5.57;;;13.60;99.90;;;;;;5024178;28;20033;-93
2023/04/01 11:49:31;;;;;;;8.60;3.50;;;13.50;99.90;;;;;;4968084;28;20136;-94
2023/04/01 11:52:38;;;;;;;6.85;2.92;;;13.30;99.90;;;;;;5046821;28;20058;-94
2023/04/01 11:55:22;;;;;;;7.63;3.53;;;13.10;99.90;;;;;;4976493;28;20038;-94
2023/04/01 11:57:57;;;;;;;7.82;4.90;;;13.10;99.90;;;;;;4960828;28;20034;-94
2023/04/01 12:01:04;;;;;;;6.63;2.97;;;13.00;99.90;;;;;;4960488;28;20587;-95
2023/04/01 12:03:54;;;;;;;6.78;3.22;;;13.00;99.90;;;;;;4904095;29;20051;-94
2023/04/01 12:06:22;;;;;;;6.28;2.70;;;12.90;99.90;;;;;;4956846;28;20525;-94
2023/04/01 12:09:04;;;;;;;6.40;2.72;;;12.80;99.90;;;;;;4961757;28;20080;-94
2023/04/01 12:11:41;;;;;;;6.13;2.53;;;12.80;99.90;;;;;;4977084;28;20042;-94
2023/04/01 12:14:48;;;;;;;7.25;3.38;;;12.70;99.90;;;;;;4961373;28;20047;-93
2023/04/01 12:17:31;;;;;;;6.25;2.60;;;12.60;99.90;;;;;;4962846;28;20522;-92
2023/04/01 12:20:11;;;;;;;5.80;2.40;;;12.60;99.90;;;;;;4940383;28;20046;-93
2023/04/01 12:23:01;;;;;;;5.95;2.65;;;12.50;99.90;;;;;;4951477;28;20054;-93
2023/04/01 12:25:48;;;;;;;5.63;2.28;;;12.40;99.90;;;;;;4987321;28;20060;-92
2023/04/01 12:28:41;;;;;;;8.25;3.85;;;12.40;99.90;;;;;;5038087;28;20032;-92
2023/04/01 12:31:37;;;;;;;7.38;2.40;;;12.30;99.90;;;;;;5055535;28;20036;-93
2023/04/01 12:34:33;;;;;;;6.40;3.50;;;12.30;99.90;;;;;;5035580;28;20037;-93
2023/04/01 12:37:34;;;;;;;5.72;2.30;;;12.40;99.90;;;;;;5038016;28;20126;-92
2023/04/01 12:40:24;;;;;;;6.13;2.40;;;12.30;99.90;;;;;;5037810;28;20174;-93
2023/04/01 12:43:11;;;;;;;5.18;2.10;;;12.30;99.90;;;;;;5038879;28;20048;-93
2023/04/01 12:45:46;;;;;;;4.70;2.15;;;12.20;99.90;;;;;;5037059;28;20055;-93
2023/04/01 12:48:21;;;;;;;5.82;2.55;;;12.20;99.90;;;;;;5039277;28;20559;-93
2023/04/01 12:51:05;;;;;;;6.15;2.65;;;12.10;99.90;;;;;;5054916;28;20040;-94
2023/04/01 12:53:50;;;;;;;4.22;1.83;;;12.10;99.90;;;;;;5033151;28;20094;-93
2023/04/01 12:56:54;;;;;;;5.75;3.22;;;12.00;99.90;;;;;;5038677;28;20083;-93
2023/04/01 12:59:47;;;;;;;5.35;2.50;;;12.10;99.90;;;;;;5034642;28;20043;-94
2023/04/01 13:02:14;;;;;;;;;;;12.00;99.90;;;;;;5037765;28;20044;-93
2023/04/01 13:05:06;;;;;;;5.72;2.25;;;11.90;99.90;;;;;;5036900;28;20005;-93
2023/04/01 13:08:07;;;;;;;5.75;2.53;;;11.90;99.90;;;;;;5029661;28;20485;-93
2023/04/01 13:10:48;;;;;;;6.13;2.40;;;11.90;99.90;;;;;;5006078;28;20076;-93
2023/04/01 13:13:46;;;;;;;4.90;2.25;;;11.80;99.90;;;;;;5054235;28;20062;-93
2023/04/01 13:16:16;;;;;;;5.75;3.45;;;11.90;99.90;;;;;;5037551;28;20094;-92
2023/04/01 13:19:23;;;;;;;5.70;2.35;;;12.00;99.90;;;;;;5033990;28;20040;-93
2023/04/01 13:22:01;;;;;;;6.95;2.33;;;11.90;99.90;;;;;;5037068;28;20137;-93
2023/04/01 13:24:58;;;;;;;6.32;2.65;;;11.80;99.90;;;;;;5042654;28;20036;-90
2023/04/01 13:27:30;;;;;;;5.80;2.60;;;11.80;99.90;;;;;;5034112;28;20124;-91
2023/04/01 13:30:08;;;;;;;6.75;2.83;;;11.80;99.90;;;;;;5034072;28;20049;-93
2023/04/01 13:32:46;;;;;;;5.70;2.33;;;11.70;99.90;;;;;;5037941;28;20032;-92
2023/04/01 13:35:41;;;;;;;5.70;2.22;;;11.70;99.90;;;;;;5038741;28;20038;-92
2023/04/01 13:38:37;;;;;;;4.82;2.30;;;11.60;99.90;;;;;;5035976;28;20405;-92
2023/04/01 13:41:47;;;;;;;6.10;2.53;;;11.60;99.90;;;;;;5034822;28;20059;-93